sensor_id;sensor_type;location;lat;lon;timestamp;pressure;altitude;pressure_sealevel;temperature;humidity
61357;BME280;47227;46.752;23.576;2023-02-18T00:02:25;96468.32;;;3.31;86.29
61357;BME280;47227;46.752;23.576;2023-02-18T00:04:54;96472.42;;;3.26;86.70
61357;BME280;47227;46.752;23.576;2023-02-18T00:07:22;96470.59;;;3.30;86.17
61357;BME280;47227;46.752;23.576;2023-02-18T00:09:50;96462.09;;;3.27;86.69
61357;BME280;47227;46.752;23.576;2023-02-18T00:12:18;96465.16;;;3.29;86.33
61357;BME280;47227;46.752;23.576;2023-02-18T00:14:46;96471.16;;;3.32;85.75
61357;BME280;47227;46.752;23.576;2023-02-18T00:17:14;96474.45;;;3.31;85.77
61357;BME280;47227;46.752;23.576;2023-02-18T00:19:42;96472.94;;;3.30;85.29
61357;BME280;47227;46.752;23.576;2023-02-18T00:22:10;96472.44;;;3.32;85.32
61357;BME280;47227;46.752;23.576;2023-02-18T00:24:38;96473.11;;;3.30;85.33
61357;BME280;47227;46.752;23.576;2023-02-18T00:27:06;96475.05;;;3.30;84.91
61357;BME280;47227;46.752;23.576;2023-02-18T00:29:35;96470.63;;;3.28;85.29
61357;BME280;47227;46.752;23.576;2023-02-18T00:32:05;96459.58;;;3.25;84.94
61357;BME280;47227;46.752;23.576;2023-02-18T00:34:33;96451.14;;;3.18;84.54
61357;BME280;47227;46.752;23.576;2023-02-18T00:37:03;96442.70;;;3.11;84.47
61357;BME280;47227;46.752;23.576;2023-02-18T00:39:32;96439.16;;;3.07;84.35
61357;BME280;47227;46.752;23.576;2023-02-18T00:42:00;96432.81;;;3.01;85.44
61357;BME280;47227;46.752;23.576;2023-02-18T00:44:28;96427.92;;;2.96;85.86
61357;BME280;47227;46.752;23.576;2023-02-18T00:46:57;96425.91;;;2.94;85.49
61357;BME280;47227;46.752;23.576;2023-02-18T00:49:25;96421.34;;;2.94;85.29
61357;BME280;47227;46.752;23.576;2023-02-18T00:51:53;96418.07;;;2.96;85.81
61357;BME280;47227;46.752;23.576;2023-02-18T00:54:21;96421.27;;;3.00;85.74
61357;BME280;47227;46.752;23.576;2023-02-18T00:56:50;96413.86;;;3.04;86.44
61357;BME280;47227;46.752;23.576;2023-02-18T00:59:19;96406.38;;;3.06;87.82
61357;BME280;47227;46.752;23.576;2023-02-18T01:01:49;96403.20;;;3.12;87.25
61357;BME280;47227;46.752;23.576;2023-02-18T01:04:25;96396.32;;;3.18;87.09
61357;BME280;47227;46.752;23.576;2023-02-18T01:06:54;96392.02;;;3.25;86.72
61357;BME280;47227;46.752;23.576;2023-02-18T01:09:22;96388.55;;;3.29;87.69
61357;BME280;47227;46.752;23.576;2023-02-18T01:11:54;96385.31;;;3.22;88.78
61357;BME280;47227;46.752;23.576;2023-02-18T01:14:27;96368.58;;;3.29;87.96
61357;BME280;47227;46.752;23.576;2023-02-18T01:17:01;96350.27;;;3.35;87.28
61357;BME280;47227;46.752;23.576;2023-02-18T01:26:58;96346.79;;;3.14;88.78
61357;BME280;47227;46.752;23.576;2023-02-18T01:29:27;96348.58;;;3.14;88.44
61357;BME280;47227;46.752;23.576;2023-02-18T01:31:56;96346.83;;;3.14;87.92
61357;BME280;47227;46.752;23.576;2023-02-18T01:34:26;96357.02;;;3.02;88.68
61357;BME280;47227;46.752;23.576;2023-02-18T01:36:54;96356.64;;;2.94;88.92
61357;BME280;47227;46.752;23.576;2023-02-18T01:39:26;96362.81;;;2.90;89.09
61357;BME280;47227;46.752;23.576;2023-02-18T01:41:54;96362.27;;;2.89;88.07
61357;BME280;47227;46.752;23.576;2023-02-18T01:44:24;96358.60;;;2.89;87.78
61357;BME280;47227;46.752;23.576;2023-02-18T01:46:54;96354.93;;;2.88;87.36
61357;BME280;47227;46.752;23.576;2023-02-18T01:49:27;96356.14;;;2.83;87.15
61357;BME280;47227;46.752;23.576;2023-02-18T01:52:01;96357.61;;;2.79;87.01
61357;BME280;47227;46.752;23.576;2023-02-18T01:54:33;96354.51;;;2.77;86.72
61357;BME280;47227;46.752;23.576;2023-02-18T01:57:06;96341.98;;;2.75;86.56
61357;BME280;47227;46.752;23.576;2023-02-18T01:59:39;96337.39;;;2.72;86.65
61357;BME280;47227;46.752;23.576;2023-02-18T02:02:13;96327.86;;;2.68;87.28
61357;BME280;47227;46.752;23.576;2023-02-18T02:04:42;96329.53;;;2.63;87.67
61357;BME280;47227;46.752;23.576;2023-02-18T02:07:11;96334.73;;;2.60;88.04
61357;BME280;47227;46.752;23.576;2023-02-18T02:09:39;96332.65;;;2.56;90.68
61357;BME280;47227;46.752;23.576;2023-02-18T02:12:33;96321.11;;;2.59;90.35
61357;BME280;47227;46.752;23.576;2023-02-18T02:15:22;96323.32;;;2.64;91.43
61357;BME280;47227;46.752;23.576;2023-02-18T02:18:08;96320.62;;;2.70;91.61
61357;BME280;47227;46.752;23.576;2023-02-18T02:21:01;96313.50;;;2.81;91.06
61357;BME280;47227;46.752;23.576;2023-02-18T02:23:57;96308.02;;;2.89;90.75
61357;BME280;47227;46.752;23.576;2023-02-18T02:26:51;96306.42;;;2.95;90.31
61357;BME280;47227;46.752;23.576;2023-02-18T02:29:48;96299.30;;;3.00;90.37
61357;BME280;47227;46.752;23.576;2023-02-18T02:32:38;96293.36;;;3.12;89.71
61357;BME280;47227;46.752;23.576;2023-02-18T02:35:19;96292.92;;;3.24;89.40
61357;BME280;47227;46.752;23.576;2023-02-18T02:38:01;96301.06;;;3.31;88.97
61357;BME280;47227;46.752;23.576;2023-02-18T02:40:42;96309.20;;;3.34;88.73
61357;BME280;47227;46.752;23.576;2023-02-18T02:46:26;96307.84;;;3.36;88.25
61357;BME280;47227;46.752;23.576;2023-02-18T02:52:08;96296.02;;;3.39;87.72
61357;BME280;47227;46.752;23.576;2023-02-18T03:50:42;96257.79;;;4.96;90.04
61357;BME280;47227;46.752;23.576;2023-02-18T03:53:10;96251.60;;;5.08;89.57
61357;BME280;47227;46.752;23.576;2023-02-18T03:55:38;96259.59;;;5.21;89.27
61357;BME280;47227;46.752;23.576;2023-02-18T03:58:06;96259.61;;;5.17;87.10
61357;BME280;47227;46.752;23.576;2023-02-18T04:00:34;96264.93;;;5.04;85.98
61357;BME280;47227;46.752;23.576;2023-02-18T04:03:02;96263.52;;;5.02;86.60
61357;BME280;47227;46.752;23.576;2023-02-18T04:05:30;96251.16;;;5.06;87.11
61357;BME280;47227;46.752;23.576;2023-02-18T04:07:58;96245.96;;;5.09;87.07
61357;BME280;47227;46.752;23.576;2023-02-18T04:10:26;96254.11;;;5.02;86.40
61357;BME280;47227;46.752;23.576;2023-02-18T04:12:56;96252.35;;;4.92;86.25
61357;BME280;47227;46.752;23.576;2023-02-18T04:15:24;96257.98;;;4.86;86.93
61357;BME280;47227;46.752;23.576;2023-02-18T04:17:52;96251.34;;;4.91;87.38
61357;BME280;47227;46.752;23.576;2023-02-18T04:20:20;96250.89;;;5.00;87.21
61357;BME280;47227;46.752;23.576;2023-02-18T04:22:49;96248.44;;;5.05;87.05
61357;BME280;47227;46.752;23.576;2023-02-18T04:25:17;96239.59;;;5.06;86.74
61357;BME280;47227;46.752;23.576;2023-02-18T04:27:45;96243.86;;;5.08;86.59
61357;BME280;47227;46.752;23.576;2023-02-18T04:30:13;96239.60;;;5.05;86.38
61357;BME280;47227;46.752;23.576;2023-02-18T04:32:45;96234.86;;;5.03;86.03
61357;BME280;47227;46.752;23.576;2023-02-18T04:35:13;96233.46;;;5.03;86.00
61357;BME280;47227;46.752;23.576;2023-02-18T04:37:41;96238.00;;;4.99;85.74
61357;BME280;47227;46.752;23.576;2023-02-18T04:40:11;96239.16;;;4.94;85.93
61357;BME280;47227;46.752;23.576;2023-02-18T04:42:39;96243.14;;;4.97;86.47
61357;BME280;47227;46.752;23.576;2023-02-18T04:45:08;96246.41;;;5.03;86.56
61357;BME280;47227;46.752;23.576;2023-02-18T04:47:36;96241.27;;;5.15;87.04
61357;BME280;47227;46.752;23.576;2023-02-18T04:50:04;96241.41;;;5.27;86.84
61357;BME280;47227;46.752;23.576;2023-02-18T04:52:32;96244.21;;;5.40;86.93
61357;BME280;47227;46.752;23.576;2023-02-18T04:55:00;96241.69;;;5.56;87.11
61357;BME280;47227;46.752;23.576;2023-02-18T04:57:28;96237.41;;;5.72;87.46
61357;BME280;47227;46.752;23.576;2023-02-18T04:59:56;96238.73;;;5.90;87.76
61357;BME280;47227;46.752;23.576;2023-02-18T05:02:24;96246.09;;;6.07;87.55
61357;BME280;47227;46.752;23.576;2023-02-18T05:04:52;96246.27;;;6.24;87.47
61357;BME280;47227;46.752;23.576;2023-02-18T05:07:20;96248.39;;;6.37;87.31
61357;BME280;47227;46.752;23.576;2023-02-18T05:09:48;96256.30;;;6.49;86.85
61357;BME280;47227;46.752;23.576;2023-02-18T05:12:16;96252.23;;;6.57;86.46
61357;BME280;47227;46.752;23.576;2023-02-18T05:14:44;96251.38;;;6.62;86.15
61357;BME280;47227;46.752;23.576;2023-02-18T05:17:12;96250.68;;;6.66;85.71
61357;BME280;47227;46.752;23.576;2023-02-18T05:19:40;96250.21;;;6.68;85.61
61357;BME280;47227;46.752;23.576;2023-02-18T05:22:08;96250.85;;;6.71;85.35
61357;BME280;47227;46.752;23.576;2023-02-18T05:24:36;96252.20;;;6.75;85.19
61357;BME280;47227;46.752;23.576;2023-02-18T05:27:04;96251.16;;;6.79;84.97
61357;BME280;47227;46.752;23.576;2023-02-18T05:29:32;96247.96;;;6.84;84.88
61357;BME280;47227;46.752;23.576;2023-02-18T05:32:00;96256.91;;;6.92;84.72
61357;BME280;47227;46.752;23.576;2023-02-18T05:34:28;96254.90;;;6.98;84.45
61357;BME280;47227;46.752;23.576;2023-02-18T05:36:56;96251.35;;;7.02;84.23
61357;BME280;47227;46.752;23.576;2023-02-18T05:39:24;96257.27;;;7.09;84.45
61357;BME280;47227;46.752;23.576;2023-02-18T05:41:52;96255.31;;;7.20;84.40
61357;BME280;47227;46.752;23.576;2023-02-18T05:44:20;96261.70;;;7.30;84.04
61357;BME280;47227;46.752;23.576;2023-02-18T05:47:04;96262.80;;;7.52;83.78
61357;BME280;47227;46.752;23.576;2023-02-18T05:49:33;96251.80;;;7.79;83.78
61357;BME280;47227;46.752;23.576;2023-02-18T05:52:02;96256.77;;;7.97;83.24
61357;BME280;47227;46.752;23.576;2023-02-18T05:54:31;96255.83;;;8.10;82.65
61357;BME280;47227;46.752;23.576;2023-02-18T05:56:59;96250.71;;;8.19;81.93
61357;BME280;47227;46.752;23.576;2023-02-18T05:59:27;96264.15;;;8.25;81.14
61357;BME280;47227;46.752;23.576;2023-02-18T06:01:56;96260.75;;;8.29;80.87
61357;BME280;47227;46.752;23.576;2023-02-18T06:04:25;96260.81;;;8.36;80.41
61357;BME280;47227;46.752;23.576;2023-02-18T06:06:53;96262.48;;;8.43;79.88
61357;BME280;47227;46.752;23.576;2023-02-18T06:09:21;96271.50;;;8.53;79.13
61357;BME280;47227;46.752;23.576;2023-02-18T06:11:49;96268.61;;;8.64;78.39
61357;BME280;47227;46.752;23.576;2023-02-18T06:14:17;96266.52;;;8.76;77.38
61357;BME280;47227;46.752;23.576;2023-02-18T06:16:45;96267.43;;;8.86;76.96
61357;BME280;47227;46.752;23.576;2023-02-18T06:19:13;96263.00;;;8.97;76.49
61357;BME280;47227;46.752;23.576;2023-02-18T06:21:41;96273.45;;;9.02;75.94
61357;BME280;47227;46.752;23.576;2023-02-18T06:24:10;96276.11;;;9.08;75.24
61357;BME280;47227;46.752;23.576;2023-02-18T06:26:38;96271.70;;;9.14;75.02
61357;BME280;47227;46.752;23.576;2023-02-18T06:29:05;96276.48;;;9.18;74.77
61357;BME280;47227;46.752;23.576;2023-02-18T06:31:33;96265.92;;;9.20;74.83
61357;BME280;47227;46.752;23.576;2023-02-18T06:34:02;96263.45;;;9.19;75.00
61357;BME280;47227;46.752;23.576;2023-02-18T06:36:30;96273.19;;;9.19;74.83
61357;BME280;47227;46.752;23.576;2023-02-18T06:38:58;96276.72;;;9.20;74.76
61357;BME280;47227;46.752;23.576;2023-02-18T06:41:26;96283.41;;;9.26;74.45
61357;BME280;47227;46.752;23.576;2023-02-18T06:43:54;96278.73;;;9.28;74.11
61357;BME280;47227;46.752;23.576;2023-02-18T06:46:21;96285.08;;;9.29;74.27
61357;BME280;47227;46.752;23.576;2023-02-18T06:48:50;96277.70;;;9.30;74.17
61357;BME280;47227;46.752;23.576;2023-02-18T06:51:18;96286.77;;;9.30;74.15
61357;BME280;47227;46.752;23.576;2023-02-18T06:53:46;96291.73;;;9.29;74.21
61357;BME280;47227;46.752;23.576;2023-02-18T06:56:14;96293.05;;;9.34;73.98
61357;BME280;47227;46.752;23.576;2023-02-18T06:58:42;96297.63;;;9.39;73.92
61357;BME280;47227;46.752;23.576;2023-02-18T07:01:13;96305.30;;;9.44;73.61
61357;BME280;47227;46.752;23.576;2023-02-18T07:03:41;96306.44;;;9.50;73.25
61357;BME280;47227;46.752;23.576;2023-02-18T07:06:10;96296.08;;;9.54;73.34
61357;BME280;47227;46.752;23.576;2023-02-18T07:08:38;96303.90;;;9.56;72.92
61357;BME280;47227;46.752;23.576;2023-02-18T07:11:06;96303.21;;;9.58;72.90
61357;BME280;47227;46.752;23.576;2023-02-18T07:13:34;96298.96;;;9.58;72.88
61357;BME280;47227;46.752;23.576;2023-02-18T07:16:02;96307.31;;;9.60;73.02
61357;BME280;47227;46.752;23.576;2023-02-18T07:18:31;96308.23;;;9.62;72.78
61357;BME280;47227;46.752;23.576;2023-02-18T07:20:59;96307.30;;;9.66;72.57
61357;BME280;47227;46.752;23.576;2023-02-18T07:23:27;96311.90;;;9.70;72.59
61357;BME280;47227;46.752;23.576;2023-02-18T07:26:12;96310.42;;;9.76;72.14
61357;BME280;47227;46.752;23.576;2023-02-18T07:28:40;96299.73;;;9.83;71.85
61357;BME280;47227;46.752;23.576;2023-02-18T07:31:09;96323.14;;;9.90;71.15
61357;BME280;47227;46.752;23.576;2023-02-18T07:33:37;96308.98;;;9.96;71.27
61357;BME280;47227;46.752;23.576;2023-02-18T07:36:05;96314.40;;;10.03;70.88
61357;BME280;47227;46.752;23.576;2023-02-18T07:38:34;96323.53;;;10.07;70.47
61357;BME280;47227;46.752;23.576;2023-02-18T07:41:02;96335.05;;;10.10;70.37
61357;BME280;47227;46.752;23.576;2023-02-18T07:43:30;96308.77;;;10.13;70.09
61357;BME280;47227;46.752;23.576;2023-02-18T07:45:58;96315.95;;;10.17;70.27
61357;BME280;47227;46.752;23.576;2023-02-18T07:48:29;96325.00;;;10.20;69.99
61357;BME280;47227;46.752;23.576;2023-02-18T07:51:00;96326.29;;;10.23;70.19
61357;BME280;47227;46.752;23.576;2023-02-18T07:53:28;96316.61;;;10.24;70.20
61357;BME280;47227;46.752;23.576;2023-02-18T07:55:57;96328.40;;;10.24;70.11
61357;BME280;47227;46.752;23.576;2023-02-18T07:58:29;96314.20;;;10.24;70.00
61357;BME280;47227;46.752;23.576;2023-02-18T08:00:58;96326.46;;;10.24;69.84
61357;BME280;47227;46.752;23.576;2023-02-18T08:03:29;96324.09;;;10.22;69.92
61357;BME280;47227;46.752;23.576;2023-02-18T08:06:00;96322.71;;;10.22;69.85
61357;BME280;47227;46.752;23.576;2023-02-18T08:08:30;96328.27;;;10.18;69.67
61357;BME280;47227;46.752;23.576;2023-02-18T08:11:01;96316.75;;;10.14;69.93
61357;BME280;47227;46.752;23.576;2023-02-18T08:13:43;96324.33;;;10.12;70.03
61357;BME280;47227;46.752;23.576;2023-02-18T08:16:15;96333.31;;;10.13;70.01
61357;BME280;47227;46.752;23.576;2023-02-18T08:18:44;96334.57;;;10.14;70.01
61357;BME280;47227;46.752;23.576;2023-02-18T08:21:16;96324.03;;;10.14;69.55
61357;BME280;47227;46.752;23.576;2023-02-18T08:23:44;96338.52;;;10.16;69.63
61357;BME280;47227;46.752;23.576;2023-02-18T08:26:13;96333.96;;;10.20;69.31
61357;BME280;47227;46.752;23.576;2023-02-18T08:28:44;96330.14;;;10.21;69.34
61357;BME280;47227;46.752;23.576;2023-02-18T08:31:19;96338.59;;;10.20;69.34
61357;BME280;47227;46.752;23.576;2023-02-18T08:33:48;96329.48;;;10.17;69.64
61357;BME280;47227;46.752;23.576;2023-02-18T08:36:16;96336.08;;;10.17;69.40
61357;BME280;47227;46.752;23.576;2023-02-18T08:38:45;96337.39;;;10.18;69.80
61357;BME280;47227;46.752;23.576;2023-02-18T08:41:13;96343.45;;;10.19;69.62
61357;BME280;47227;46.752;23.576;2023-02-18T08:43:42;96350.20;;;10.15;69.68
61357;BME280;47227;46.752;23.576;2023-02-18T08:46:10;96356.02;;;10.15;69.87
61357;BME280;47227;46.752;23.576;2023-02-18T08:48:43;96352.06;;;10.17;69.78
61357;BME280;47227;46.752;23.576;2023-02-18T08:51:17;96345.66;;;10.13;70.06
61357;BME280;47227;46.752;23.576;2023-02-18T08:53:45;96356.02;;;10.07;70.11
61357;BME280;47227;46.752;23.576;2023-02-18T08:56:14;96351.64;;;10.05;70.36
61357;BME280;47227;46.752;23.576;2023-02-18T08:58:43;96346.31;;;10.02;70.63
61357;BME280;47227;46.752;23.576;2023-02-18T09:01:12;96348.60;;;9.98;70.74
61357;BME280;47227;46.752;23.576;2023-02-18T09:03:40;96342.59;;;9.87;71.02
61357;BME280;47227;46.752;23.576;2023-02-18T09:08:50;96343.28;;;9.73;71.83
61357;BME280;47227;46.752;23.576;2023-02-18T09:11:19;96348.67;;;9.76;71.93
61357;BME280;47227;46.752;23.576;2023-02-18T09:13:51;96341.42;;;9.72;72.02
61357;BME280;47227;46.752;23.576;2023-02-18T09:16:20;96344.40;;;9.82;71.84
61357;BME280;47227;46.752;23.576;2023-02-18T09:40:55;96369.09;;;9.94;71.21
61357;BME280;47227;46.752;23.576;2023-02-18T09:43:34;96379.90;;;9.99;70.68
61357;BME280;47227;46.752;23.576;2023-02-18T09:46:14;96382.45;;;9.93;70.11
61357;BME280;47227;46.752;23.576;2023-02-18T09:48:46;96383.69;;;9.95;69.86
61357;BME280;47227;46.752;23.576;2023-02-18T09:51:15;96378.20;;;9.93;69.79
61357;BME280;47227;46.752;23.576;2023-02-18T09:53:45;96384.62;;;9.99;69.22
61357;BME280;47227;46.752;23.576;2023-02-18T09:56:26;96383.60;;;10.00;68.21
61357;BME280;47227;46.752;23.576;2023-02-18T09:58:57;96374.71;;;10.02;67.45
61357;BME280;47227;46.752;23.576;2023-02-18T10:01:33;96386.17;;;10.04;66.66
61357;BME280;47227;46.752;23.576;2023-02-18T10:04:09;96393.77;;;10.04;66.44
61357;BME280;47227;46.752;23.576;2023-02-18T10:06:40;96399.15;;;10.03;65.84
61357;BME280;47227;46.752;23.576;2023-02-18T10:09:21;96382.23;;;9.97;65.92
61357;BME280;47227;46.752;23.576;2023-02-18T10:11:55;96378.28;;;9.95;65.95
61357;BME280;47227;46.752;23.576;2023-02-18T10:14:24;96397.98;;;9.94;65.84
61357;BME280;47227;46.752;23.576;2023-02-18T10:16:52;96401.20;;;9.93;65.07
61357;BME280;47227;46.752;23.576;2023-02-18T10:19:28;96369.98;;;9.90;64.40
61357;BME280;47227;46.752;23.576;2023-02-18T10:22:00;96377.50;;;9.91;64.39
61357;BME280;47227;46.752;23.576;2023-02-18T10:24:34;96388.03;;;9.91;64.10
61357;BME280;47227;46.752;23.576;2023-02-18T10:27:05;96380.20;;;9.89;63.67
61357;BME280;47227;46.752;23.576;2023-02-18T10:29:34;96377.48;;;9.87;63.82
61357;BME280;47227;46.752;23.576;2023-02-18T10:32:23;96379.92;;;9.86;63.72
61357;BME280;47227;46.752;23.576;2023-02-18T10:34:58;96368.42;;;9.87;63.81
61357;BME280;47227;46.752;23.576;2023-02-18T10:37:46;96365.16;;;9.85;62.76
61357;BME280;47227;46.752;23.576;2023-02-18T10:40:35;96361.83;;;9.90;62.84
61357;BME280;47227;46.752;23.576;2023-02-18T10:43:20;96356.80;;;9.95;62.57
61357;BME280;47227;46.752;23.576;2023-02-18T10:46:01;96359.38;;;10.00;61.76
61357;BME280;47227;46.752;23.576;2023-02-18T10:49:02;96342.42;;;10.05;61.71
61357;BME280;47227;46.752;23.576;2023-02-18T10:51:47;96341.75;;;10.13;61.02
61357;BME280;47227;46.752;23.576;2023-02-18T10:54:17;96327.95;;;10.22;61.28
61357;BME280;47227;46.752;23.576;2023-02-18T10:56:58;96326.23;;;10.29;61.22
61357;BME280;47227;46.752;23.576;2023-02-18T10:59:34;96327.98;;;10.45;60.79
61357;BME280;47227;46.752;23.576;2023-02-18T11:02:16;96323.72;;;10.60;60.42
61357;BME280;47227;46.752;23.576;2023-02-18T11:04:46;96323.11;;;10.77;59.36
61357;BME280;47227;46.752;23.576;2023-02-18T11:07:29;96325.02;;;10.88;59.13
61357;BME280;47227;46.752;23.576;2023-02-18T11:10:06;96326.51;;;10.96;58.22
61357;BME280;47227;46.752;23.576;2023-02-18T11:12:57;96311.14;;;11.02;57.81
61357;BME280;47227;46.752;23.576;2023-02-18T11:15:31;96325.92;;;11.07;56.85
61357;BME280;47227;46.752;23.576;2023-02-18T11:18:36;96316.11;;;11.06;56.47
61357;BME280;47227;46.752;23.576;2023-02-18T11:21:34;96303.48;;;11.10;56.70
61357;BME280;47227;46.752;23.576;2023-02-18T11:24:08;96308.73;;;11.15;56.92
61357;BME280;47227;46.752;23.576;2023-02-18T11:26:38;96326.96;;;11.24;56.44
61357;BME280;47227;46.752;23.576;2023-02-18T11:29:18;96309.45;;;11.42;56.29
61357;BME280;47227;46.752;23.576;2023-02-18T11:31:52;96304.94;;;11.62;56.50
61357;BME280;47227;46.752;23.576;2023-02-18T11:34:28;96307.17;;;11.81;55.37
61357;BME280;47227;46.752;23.576;2023-02-18T11:37:10;96305.23;;;12.07;53.46
61357;BME280;47227;46.752;23.576;2023-02-18T11:39:43;96311.77;;;12.21;53.77
61357;BME280;47227;46.752;23.576;2023-02-18T11:42:15;96303.60;;;12.07;54.28
61357;BME280;47227;46.752;23.576;2023-02-18T11:44:53;96298.41;;;12.10;54.94
61357;BME280;47227;46.752;23.576;2023-02-18T11:47:26;96295.96;;;12.29;54.84
61357;BME280;47227;46.752;23.576;2023-02-18T11:52:54;96290.83;;;12.66;53.19
61357;BME280;47227;46.752;23.576;2023-02-18T11:55:27;96285.42;;;12.56;52.84
61357;BME280;47227;46.752;23.576;2023-02-18T11:58:00;96276.23;;;12.61;52.47
61357;BME280;47227;46.752;23.576;2023-02-18T12:00:47;96284.87;;;12.67;52.45
61357;BME280;47227;46.752;23.576;2023-02-18T12:03:32;96272.23;;;12.66;52.87
61357;BME280;47227;46.752;23.576;2023-02-18T12:06:04;96271.69;;;12.54;52.43
61357;BME280;47227;46.752;23.576;2023-02-18T12:08:53;96273.42;;;12.49;52.74
61357;BME280;47227;46.752;23.576;2023-02-18T12:11:46;96287.79;;;12.36;52.29
61357;BME280;47227;46.752;23.576;2023-02-18T12:14:21;96268.96;;;12.11;52.71
61357;BME280;47227;46.752;23.576;2023-02-18T12:17:13;96270.20;;;12.05;53.34
61357;BME280;47227;46.752;23.576;2023-02-18T12:20:18;96272.01;;;12.08;52.92
61357;BME280;47227;46.752;23.576;2023-02-18T12:23:07;96264.48;;;12.05;52.56
61357;BME280;47227;46.752;23.576;2023-02-18T12:25:48;96265.52;;;12.03;52.86
61357;BME280;47227;46.752;23.576;2023-02-18T12:28:45;96256.70;;;11.79;52.65
61357;BME280;47227;46.752;23.576;2023-02-18T12:31:33;96249.08;;;11.88;53.11
61357;BME280;47227;46.752;23.576;2023-02-18T12:34:22;96253.69;;;12.03;51.98
61357;BME280;47227;46.752;23.576;2023-02-18T12:46:21;96243.63;;;12.86;51.59
61357;BME280;47227;46.752;23.576;2023-02-18T12:49:07;96243.40;;;13.27;50.35
61357;BME280;47227;46.752;23.576;2023-02-18T12:51:59;96244.40;;;13.36;49.20
61357;BME280;47227;46.752;23.576;2023-02-18T12:54:53;96242.09;;;13.32;48.77
61357;BME280;47227;46.752;23.576;2023-02-18T12:57:47;96243.75;;;13.14;49.27
61357;BME280;47227;46.752;23.576;2023-02-18T13:00:35;96247.92;;;13.11;49.96
61357;BME280;47227;46.752;23.576;2023-02-18T13:03:26;96252.35;;;13.03;50.01
61357;BME280;47227;46.752;23.576;2023-02-18T13:09:22;96233.52;;;12.41;51.86
61357;BME280;47227;46.752;23.576;2023-02-18T13:12:05;96237.02;;;12.33;52.37
61357;BME280;47227;46.752;23.576;2023-02-18T13:14:49;96227.45;;;12.17;52.73
61357;BME280;47227;46.752;23.576;2023-02-18T13:17:25;96235.80;;;12.10;53.14
61357;BME280;47227;46.752;23.576;2023-02-18T13:23:11;96227.63;;;11.92;53.77
61357;BME280;47227;46.752;23.576;2023-02-18T13:25:42;96224.48;;;11.99;53.90
61357;BME280;47227;46.752;23.576;2023-02-18T13:31:36;96227.14;;;12.03;53.54
61357;BME280;47227;46.752;23.576;2023-02-18T13:34:23;96227.11;;;11.99;52.94
61357;BME280;47227;46.752;23.576;2023-02-18T13:37:11;96221.10;;;11.92;52.62
61357;BME280;47227;46.752;23.576;2023-02-18T13:39:52;96224.27;;;11.95;52.83
61357;BME280;47227;46.752;23.576;2023-02-18T13:42:36;96219.52;;;11.95;52.30
61357;BME280;47227;46.752;23.576;2023-02-18T13:45:23;96225.41;;;11.92;51.61
61357;BME280;47227;46.752;23.576;2023-02-18T13:47:53;96215.41;;;11.90;51.95
61357;BME280;47227;46.752;23.576;2023-02-18T13:50:30;96217.11;;;11.86;52.43
61357;BME280;47227;46.752;23.576;2023-02-18T13:53:19;96221.23;;;11.83;52.82
61357;BME280;47227;46.752;23.576;2023-02-18T13:55:57;96214.27;;;11.75;53.12
61357;BME280;47227;46.752;23.576;2023-02-18T13:58:56;96221.16;;;11.66;53.31
61357;BME280;47227;46.752;23.576;2023-02-18T14:01:41;96219.10;;;11.56;53.86
61357;BME280;47227;46.752;23.576;2023-02-18T14:10:33;96210.92;;;11.26;54.80
61357;BME280;47227;46.752;23.576;2023-02-18T14:13:23;96198.59;;;11.17;55.30
61357;BME280;47227;46.752;23.576;2023-02-18T14:15:56;96207.60;;;11.06;55.91
61357;BME280;47227;46.752;23.576;2023-02-18T14:18:54;96210.86;;;10.99;56.30
61357;BME280;47227;46.752;23.576;2023-02-18T14:21:46;96214.09;;;10.85;56.74
61357;BME280;47227;46.752;23.576;2023-02-18T14:24:42;96210.73;;;10.76;57.28
61357;BME280;47227;46.752;23.576;2023-02-18T14:27:16;96207.24;;;10.69;57.14
61357;BME280;47227;46.752;23.576;2023-02-18T14:29:45;96207.52;;;10.69;56.79
61357;BME280;47227;46.752;23.576;2023-02-18T14:32:18;96189.85;;;10.67;57.16
61357;BME280;47227;46.752;23.576;2023-02-18T14:35:09;96195.17;;;10.62;57.21
61357;BME280;47227;46.752;23.576;2023-02-18T14:37:52;96197.19;;;10.60;57.48
61357;BME280;47227;46.752;23.576;2023-02-18T14:43:49;96207.93;;;10.47;58.43
61357;BME280;47227;46.752;23.576;2023-02-18T14:46:38;96209.39;;;10.40;59.01
61357;BME280;47227;46.752;23.576;2023-02-18T14:49:27;96207.27;;;10.33;59.59
61357;BME280;47227;46.752;23.576;2023-02-18T14:52:10;96207.29;;;10.23;60.71
61357;BME280;47227;46.752;23.576;2023-02-18T14:54:57;96204.52;;;10.18;61.20
61357;BME280;47227;46.752;23.576;2023-02-18T14:57:38;96208.98;;;10.14;61.60
61357;BME280;47227;46.752;23.576;2023-02-18T15:00:26;96200.66;;;10.10;61.69
61357;BME280;47227;46.752;23.576;2023-02-18T15:03:18;96201.37;;;10.04;62.13
61357;BME280;47227;46.752;23.576;2023-02-18T15:06:21;96199.92;;;10.00;62.19
61357;BME280;47227;46.752;23.576;2023-02-18T15:08:51;96196.20;;;9.97;62.17
61357;BME280;47227;46.752;23.576;2023-02-18T15:11:58;96202.39;;;9.96;61.78
61357;BME280;47227;46.752;23.576;2023-02-18T15:14:46;96201.71;;;9.98;61.75
61357;BME280;47227;46.752;23.576;2023-02-18T15:17:19;96196.23;;;9.99;61.78
61357;BME280;47227;46.752;23.576;2023-02-18T15:19:52;96192.42;;;10.01;61.20
61357;BME280;47227;46.752;23.576;2023-02-18T15:22:31;96192.23;;;10.02;61.16
61357;BME280;47227;46.752;23.576;2023-02-18T15:25:01;96192.89;;;10.04;61.34
61357;BME280;47227;46.752;23.576;2023-02-18T15:27:33;96193.13;;;10.02;61.14
61357;BME280;47227;46.752;23.576;2023-02-18T15:30:17;96188.67;;;10.03;60.96
61357;BME280;47227;46.752;23.576;2023-02-18T15:32:57;96177.58;;;10.00;61.62
61357;BME280;47227;46.752;23.576;2023-02-18T15:35:31;96187.81;;;10.00;61.53
61357;BME280;47227;46.752;23.576;2023-02-18T15:38:00;96183.11;;;10.01;61.62
61357;BME280;47227;46.752;23.576;2023-02-18T15:40:34;96190.73;;;9.99;61.55